createdAt,value
2023-02-16T00:01:25.983Z,102342.34
2023-02-16T00:03:55.486Z,102338.09
2023-02-16T00:06:23.676Z,102335.69
2023-02-16T00:08:55.097Z,102335.91
2023-02-16T00:11:45.921Z,102331.25
2023-02-16T00:14:15.371Z,102341.16
2023-02-16T00:16:43.461Z,102339.00
2023-02-16T00:19:18.900Z,102339.00
2023-02-16T00:21:46.989Z,102328.91
2023-02-16T00:24:16.264Z,102327.28
2023-02-16T00:26:45.261Z,102333.00
2023-02-16T00:29:17.904Z,102334.59
2023-02-16T00:31:45.764Z,102335.03
2023-02-16T00:34:27.263Z,102339.50
2023-02-16T00:36:55.805Z,102339.09
2023-02-16T00:39:26.297Z,102331.44
2023-02-16T00:41:55.866Z,102326.41
2023-02-16T00:44:30.634Z,102333.50
2023-02-16T00:47:00.127Z,102322.16
2023-02-16T00:49:29.052Z,102321.59
2023-02-16T00:51:57.088Z,102319.97
2023-02-16T00:54:26.255Z,102321.75
2023-02-16T00:56:54.291Z,102324.63
2023-02-16T00:59:24.186Z,102322.41
2023-02-16T01:01:52.067Z,102326.66
2023-02-16T01:04:23.336Z,102317.16
2023-02-16T01:07:08.977Z,102320.00
2023-02-16T01:09:55.396Z,102322.28
2023-02-16T01:12:23.415Z,102311.97
2023-02-16T01:14:54.322Z,102313.78
2023-02-16T01:17:25.201Z,102307.38
2023-02-16T01:19:54.888Z,102315.47
2023-02-16T01:22:22.671Z,102319.13
2023-02-16T01:24:51.819Z,102311.47
2023-02-16T01:27:19.639Z,102314.31
2023-02-16T01:29:47.434Z,102313.50
2023-02-16T01:32:17.009Z,102305.03
2023-02-16T01:34:44.847Z,102308.69
2023-02-16T01:37:15.752Z,102311.31
2023-02-16T01:39:44.746Z,102300.22
2023-02-16T01:42:34.520Z,102300.22
2023-02-16T01:45:05.800Z,102294.38
2023-02-16T01:47:40.990Z,102297.00
2023-02-16T01:50:16.417Z,102289.31
2023-02-16T01:52:45.603Z,102296.41
2023-02-16T01:55:19.554Z,102292.16
2023-02-16T01:57:51.575Z,102285.91
2023-02-16T02:00:33.324Z,102290.13
2023-02-16T02:03:18.371Z,102289.94
2023-02-16T02:05:46.412Z,102293.13
2023-02-16T02:08:22.112Z,102283.41
2023-02-16T02:11:01.700Z,102276.56
2023-02-16T02:13:37.220Z,102276.91
2023-02-16T02:16:06.570Z,102272.28
2023-02-16T02:18:35.057Z,102277.06
2023-02-16T02:21:45.539Z,102270.59
2023-02-16T02:24:43.296Z,102268.09
2023-02-16T02:27:21.822Z,102263.44
2023-02-16T02:30:22.426Z,102263.59
2023-02-16T02:33:03.652Z,102258.69
2023-02-16T02:35:45.251Z,102245.38
2023-02-16T02:38:20.794Z,102251.19
2023-02-16T02:40:59.338Z,102247.09
2023-02-16T02:43:36.041Z,102255.00
2023-02-16T02:46:10.230Z,102247.69
2023-02-16T02:48:38.068Z,102245.88
2023-02-16T02:51:30.886Z,102250.91
2023-02-16T02:54:25.427Z,102247.25
2023-02-16T02:57:18.261Z,102243.63
2023-02-16T03:00:10.124Z,102242.00
2023-02-16T03:02:41.332Z,102226.81
2023-02-16T03:05:12.821Z,102241.56
2023-02-16T03:07:49.756Z,102227.84
2023-02-16T03:10:39.116Z,102226.22
2023-02-16T03:13:14.291Z,102223.59
2023-02-16T03:15:47.650Z,102222.19
2023-02-16T03:18:34.847Z,102223.25
2023-02-16T03:21:21.970Z,102218.56
2023-02-16T03:24:09.788Z,102209.63
2023-02-16T03:26:55.827Z,102211.03
2023-02-16T03:29:25.079Z,102207.59
2023-02-16T03:31:56.344Z,102208.41
2023-02-16T03:34:25.273Z,102212.66
2023-02-16T03:36:58.456Z,102211.59
2023-02-16T03:39:26.976Z,102224.53
2023-02-16T03:41:57.015Z,102215.63
2023-02-16T03:44:25.842Z,102215.41
2023-02-16T03:46:54.979Z,102208.31
2023-02-16T03:49:22.831Z,102205.47
2023-02-16T03:51:50.580Z,102216.81
2023-02-16T03:54:18.334Z,102214.94
2023-02-16T03:56:46.067Z,102225.25
2023-02-16T03:59:13.793Z,102233.97
2023-02-16T04:01:41.604Z,102224.22
2023-02-16T04:04:10.815Z,102230.06
2023-02-16T04:06:38.795Z,102234.31
2023-02-16T04:09:06.663Z,102230.88
2023-02-16T04:11:51.862Z,102228.03
2023-02-16T04:14:19.653Z,102242.56
2023-02-16T04:16:47.477Z,102233.88
2023-02-16T04:19:16.679Z,102233.63
2023-02-16T04:21:44.435Z,102230.19
2023-02-16T04:24:12.239Z,102230.19
2023-02-16T04:26:40.022Z,102232.63
2023-02-16T04:29:07.811Z,102235.25
2023-02-16T04:31:35.666Z,102223.69
2023-02-16T04:34:03.561Z,102218.44
2023-02-16T04:36:32.690Z,102221.63
2023-02-16T04:39:00.431Z,102220.06
2023-02-16T04:41:28.264Z,102229.53
2023-02-16T04:43:56.050Z,102229.53
2023-02-16T04:46:23.987Z,102228.75
2023-02-16T04:48:51.891Z,102237.41
2023-02-16T04:51:19.662Z,102237.41
2023-02-16T04:53:48.753Z,102228.75
2023-02-16T04:56:17.035Z,102219.00
2023-02-16T04:58:44.803Z,102220.06
2023-02-16T05:01:19.974Z,102218.00
2023-02-16T05:03:47.977Z,102216.38
2023-02-16T05:06:16.124Z,102210.09
2023-02-16T05:08:43.910Z,102217.00
2023-02-16T05:11:31.101Z,102209.88
2023-02-16T05:14:16.675Z,102202.78
2023-02-16T05:16:45.336Z,102213.31
2023-02-16T05:19:14.097Z,102200.75
2023-02-16T05:21:41.844Z,102196.28
2023-02-16T05:24:11.315Z,102195.47
2023-02-16T05:26:40.998Z,102188.63
2023-02-16T05:29:08.777Z,102199.16
2023-02-16T05:31:36.672Z,102193.88
2023-02-16T05:34:04.620Z,102193.88
2023-02-16T05:36:32.356Z,102184.38
2023-02-16T05:39:00.317Z,102179.94
2023-02-16T05:41:28.164Z,102187.81
2023-02-16T05:43:59.427Z,102191.25
2023-02-16T05:46:28.788Z,102200.16
2023-02-16T05:48:56.600Z,102207.25
2023-02-16T05:51:24.477Z,102206.47
2023-02-16T05:53:52.548Z,102197.78
2023-02-16T05:56:21.394Z,102199.59
2023-02-16T05:58:49.588Z,102191.13
2023-02-16T06:01:18.587Z,102191.69
2023-02-16T06:03:46.866Z,102200.59
2023-02-16T06:06:14.740Z,102207.09
2023-02-16T06:08:42.565Z,102198.44
2023-02-16T06:11:31.177Z,102198.44
2023-02-16T06:13:59.551Z,102200.50
2023-02-16T06:16:30.018Z,102193.63
2023-02-16T06:18:58.660Z,102210.19
2023-02-16T06:21:26.743Z,102215.22
2023-02-16T06:23:54.967Z,102206.75
2023-02-16T06:26:22.560Z,102208.38
2023-02-16T06:28:50.370Z,102211.44
2023-02-16T06:31:18.397Z,102213.03
2023-02-16T06:33:47.986Z,102207.56
2023-02-16T06:36:16.412Z,102209.41
2023-02-16T06:38:45.443Z,102224.59
2023-02-16T06:41:13.806Z,102220.34
2023-02-16T06:43:41.649Z,102222.97
2023-02-16T06:46:09.424Z,102221.97
2023-02-16T06:48:37.246Z,102219.91
2023-02-16T06:51:07.063Z,102219.91
2023-02-16T06:53:35.072Z,102215.47
2023-02-16T06:56:02.850Z,102203.13
2023-02-16T06:58:30.594Z,102203.91
2023-02-16T07:00:58.441Z,102199.69
2023-02-16T07:03:26.292Z,102211.22
2023-02-16T07:05:54.212Z,102217.28
2023-02-16T07:08:23.392Z,102212.84
2023-02-16T07:10:51.200Z,102222.09
2023-02-16T07:13:19.091Z,102223.25
2023-02-16T07:15:47.315Z,102220.75
2023-02-16T07:18:14.957Z,102224.53
2023-02-16T07:20:42.808Z,102223.53
2023-02-16T07:23:10.615Z,102219.88
2023-02-16T07:25:39.754Z,102218.41
2023-02-16T07:28:07.777Z,102228.47
2023-02-16T07:30:36.561Z,102231.47
2023-02-16T07:33:06.590Z,102240.75
2023-02-16T07:35:34.694Z,102237.63
2023-02-16T07:38:02.771Z,102231.38
2023-02-16T07:40:30.619Z,102236.38
2023-02-16T07:43:02.318Z,102240.41
2023-02-16T07:45:32.650Z,102242.81
2023-02-16T07:48:00.717Z,102248.44
2023-02-16T07:50:28.607Z,102247.19
2023-02-16T07:52:56.391Z,102248.81
2023-02-16T07:55:24.173Z,102247.53
2023-02-16T07:57:55.377Z,102250.16
2023-02-16T08:00:24.928Z,102252.56
2023-02-16T08:02:53.230Z,102252.91
2023-02-16T08:05:21.188Z,102256.13
2023-02-16T08:07:48.995Z,102256.72
2023-02-16T08:10:17.301Z,102259.94
2023-02-16T08:12:45.141Z,102262.91
2023-02-16T08:15:13.512Z,102274.00
2023-02-16T08:17:43.483Z,102269.34
2023-02-16T08:20:11.949Z,102267.28
2023-02-16T08:22:39.721Z,102265.78
2023-02-16T08:25:08.201Z,102261.66
2023-02-16T08:27:36.566Z,102267.28
2023-02-16T08:30:05.834Z,102274.97
2023-02-16T08:32:33.696Z,102262.38
2023-02-16T08:35:02.898Z,102264.78
2023-02-16T08:37:30.671Z,102274.63
2023-02-16T08:40:00.746Z,102274.41
2023-02-16T08:42:28.584Z,102276.78
2023-02-16T08:44:56.512Z,102277.59
2023-02-16T08:47:24.339Z,102276.13
2023-02-16T08:49:52.153Z,102275.09
2023-02-16T08:52:21.389Z,102279.91
2023-02-16T08:54:49.360Z,102277.03
2023-02-16T08:57:18.557Z,102282.06
2023-02-16T09:00:06.316Z,102271.09
2023-02-16T09:02:34.163Z,102283.00
2023-02-16T09:05:01.967Z,102280.13
2023-02-16T09:07:34.865Z,102282.56
2023-02-16T09:10:02.844Z,102288.84
2023-02-16T09:12:33.007Z,102286.44
2023-02-16T09:15:01.242Z,102282.19
2023-02-16T09:17:29.642Z,102292.16
2023-02-16T09:19:57.417Z,102287.59
2023-02-16T09:22:25.300Z,102298.94
2023-02-16T09:24:54.794Z,102289.28
2023-02-16T09:27:22.690Z,102296.63
2023-02-16T09:29:51.340Z,102297.53
2023-02-16T09:32:19.185Z,102284.38
2023-02-16T09:34:50.029Z,102290.31
2023-02-16T09:37:17.886Z,102271.31
2023-02-16T09:39:45.631Z,102266.38
2023-02-16T09:42:29.660Z,102267.53
2023-02-16T09:45:07.484Z,102264.09
2023-02-16T09:47:39.488Z,102283.31
2023-02-16T09:50:16.240Z,102286.56
2023-02-16T09:52:52.121Z,102279.44
2023-02-16T09:55:22.444Z,102286.31
2023-02-16T09:58:03.123Z,102287.81
2023-02-16T10:00:44.736Z,102284.25
2023-02-16T10:03:34.819Z,102291.13
2023-02-16T10:06:17.479Z,102280.59
2023-02-16T10:08:48.928Z,102296.16
2023-02-16T10:11:41.770Z,102299.59
2023-02-16T10:14:18.534Z,102306.31
2023-02-16T10:16:53.864Z,102303.69
2023-02-16T10:19:25.289Z,102294.78
2023-02-16T10:21:59.391Z,102295.59
2023-02-16T10:24:31.268Z,102286.19
2023-02-16T10:27:04.285Z,102287.69
2023-02-16T10:29:33.535Z,102290.22
2023-02-16T10:32:13.456Z,102282.78
2023-02-16T10:34:50.099Z,102286.91
2023-02-16T10:37:30.874Z,102290.69
2023-02-16T10:40:21.632Z,102294.00
2023-02-16T10:42:56.391Z,102293.22
2023-02-16T10:45:31.934Z,102288.84
2023-02-16T10:48:00.380Z,102287.25
2023-02-16T10:50:33.091Z,102294.47
2023-02-16T10:53:05.255Z,102292.50
2023-02-16T10:55:33.071Z,102300.75
2023-02-16T10:58:03.065Z,102299.03
2023-02-16T11:00:54.398Z,102291.13
2023-02-16T11:03:29.398Z,102279.56
2023-02-16T11:05:57.040Z,102281.69
2023-02-16T11:08:25.749Z,102272.75
2023-02-16T11:10:55.289Z,102272.59
2023-02-16T11:13:32.911Z,102277.38
2023-02-16T11:16:07.715Z,102271.75
2023-02-16T11:18:39.819Z,102267.38
2023-02-16T11:21:09.843Z,102263.13
2023-02-16T11:23:39.160Z,102258.00
2023-02-16T11:26:09.109Z,102249.06
2023-02-16T11:28:39.007Z,102252.34
2023-02-16T11:31:17.004Z,102246.66
2023-02-16T11:33:56.383Z,102247.31
2023-02-16T11:36:31.619Z,102243.97
2023-02-16T11:39:02.803Z,102241.34
2023-02-16T11:41:33.378Z,102243.19
2023-02-16T11:44:03.042Z,102239.94
2023-02-16T11:46:40.562Z,102244.00
2023-02-16T11:49:23.305Z,102240.78
2023-02-16T11:51:51.190Z,102238.66
2023-02-16T11:54:19.432Z,102234.50
2023-02-16T11:57:01.568Z,102232.03
2023-02-16T11:59:35.469Z,102246.50
2023-02-16T12:02:37.036Z,102236.88
2023-02-16T12:05:22.836Z,102230.16
2023-02-16T12:08:04.834Z,102225.44
2023-02-16T12:10:40.043Z,102216.75
2023-02-16T12:13:19.047Z,102214.09
2023-02-16T12:15:53.658Z,102217.69
2023-02-16T12:18:32.430Z,102212.50
2023-02-16T12:21:09.274Z,102206.53
2023-02-16T12:23:40.966Z,102195.19
2023-02-16T12:26:24.925Z,102188.50
2023-02-16T12:29:04.514Z,102181.66
2023-02-16T12:31:47.314Z,102176.69
2023-02-16T12:34:24.778Z,102165.88
2023-02-16T12:37:03.534Z,102167.25
2023-02-16T12:39:38.523Z,102155.31
2023-02-16T12:42:36.882Z,102158.50
2023-02-16T12:45:09.899Z,102156.81
2023-02-16T12:47:42.618Z,102145.94
2023-02-16T12:50:20.850Z,102147.84
2023-02-16T12:52:54.007Z,102138.03
2023-02-16T12:55:25.970Z,102131.66
2023-02-16T12:58:01.534Z,102126.88
2023-02-16T13:00:41.711Z,102129.53
2023-02-16T13:03:21.842Z,102125.28
2023-02-16T13:06:00.031Z,102131.16
2023-02-16T13:08:39.229Z,102129.22
2023-02-16T13:11:15.476Z,102130.66
2023-02-16T13:13:45.871Z,102129.75
2023-02-16T13:16:29.446Z,102130.03
2023-02-16T13:18:58.209Z,102129.78
2023-02-16T13:21:51.196Z,102118.28
2023-02-16T13:24:32.712Z,102119.63
2023-02-16T13:27:16.183Z,102129.53
2023-02-16T13:30:00.239Z,102113.09
2023-02-16T13:32:50.011Z,102112.53
2023-02-16T13:35:43.171Z,102113.03
2023-02-16T13:38:43.074Z,102091.56
2023-02-16T13:41:35.404Z,102098.34
2023-02-16T13:44:08.923Z,102079.22
2023-02-16T13:46:41.430Z,102074.81
2023-02-16T13:49:42.380Z,102078.72
2023-02-16T13:52:11.396Z,102064.16
2023-02-16T13:54:43.657Z,102055.28
2023-02-16T13:57:12.822Z,102056.66
2023-02-16T14:00:02.090Z,102055.63
2023-02-16T14:02:54.372Z,102055.56
2023-02-16T14:05:28.666Z,102048.16
2023-02-16T14:08:19.089Z,102054.06
2023-02-16T14:11:09.888Z,102051.19
2023-02-16T14:13:55.500Z,102059.44
2023-02-16T14:16:41.315Z,102054.91
2023-02-16T14:19:20.332Z,102045.38
2023-02-16T14:21:50.489Z,102047.50
2023-02-16T14:24:31.201Z,102046.69
2023-02-16T14:27:02.883Z,102045.91
2023-02-16T14:29:34.018Z,102040.31
2023-02-16T14:32:07.721Z,102026.53
2023-02-16T14:34:43.286Z,102027.88
2023-02-16T14:37:32.823Z,102033.44
2023-02-16T14:40:15.824Z,102026.25
2023-02-16T14:42:58.108Z,102022.28
2023-02-16T14:45:59.813Z,102023.06
2023-02-16T14:48:39.778Z,102024.41
2023-02-16T14:51:40.677Z,102027.56
2023-02-16T14:54:32.029Z,102021.72
2023-02-16T14:57:05.938Z,102025.16
2023-02-16T14:59:41.619Z,102029.94
2023-02-16T15:02:28.222Z,102023.28
2023-02-16T15:04:56.845Z,102017.97
2023-02-16T15:07:26.695Z,102031.75
2023-02-16T15:09:58.579Z,102036.78
2023-02-16T15:12:41.175Z,102029.06
2023-02-16T15:15:20.384Z,102031.41
2023-02-16T15:17:50.052Z,102042.75
2023-02-16T15:20:24.917Z,102037.34
2023-02-16T15:22:54.602Z,102030.41
2023-02-16T15:25:26.845Z,102028.75
2023-02-16T15:27:58.998Z,102034.47
2023-02-16T15:30:31.618Z,102037.63
2023-02-16T15:33:02.280Z,102035.19
2023-02-16T15:35:34.244Z,102037.50
2023-02-16T15:38:04.867Z,102041.66
2023-02-16T15:40:35.158Z,102035.22
2023-02-16T15:43:10.861Z,102030.69
2023-02-16T15:45:40.487Z,102033.50
2023-02-16T15:48:16.427Z,102030.25
2023-02-16T15:50:46.247Z,102031.72
2023-02-16T15:53:16.524Z,102036.41
2023-02-16T15:55:46.693Z,102043.47
2023-02-16T15:58:16.433Z,102028.84
2023-02-16T16:00:47.685Z,102025.06
2023-02-16T16:03:18.090Z,102030.66
2023-02-16T16:05:59.693Z,102031.34
2023-02-16T16:08:28.388Z,102018.44
2023-02-16T16:10:56.656Z,102019.84
2023-02-16T16:13:27.377Z,102015.88
2023-02-16T16:16:01.786Z,102009.81
2023-02-16T16:18:44.638Z,102011.31
2023-02-16T16:21:21.426Z,102014.22
2023-02-16T16:24:01.533Z,102009.44
2023-02-16T16:26:32.107Z,102007.28
2023-02-16T16:29:01.873Z,102011.22
2023-02-16T16:31:42.571Z,102009.13
2023-02-16T16:34:31.091Z,102005.88
2023-02-16T16:36:59.580Z,102004.34
2023-02-16T16:39:29.135Z,102008.72
2023-02-16T16:42:26.778Z,102000.06
2023-02-16T16:45:06.082Z,102001.28
2023-02-16T16:47:38.770Z,101990.97
2023-02-16T16:50:31.764Z,101992.34
2023-02-16T16:52:59.585Z,101988.56
2023-02-16T16:55:31.221Z,101977.19
2023-02-16T16:58:01.194Z,101972.41
2023-02-16T17:00:34.069Z,101966.31
2023-02-16T17:03:03.992Z,101969.50
2023-02-16T17:05:31.932Z,101974.00
2023-02-16T17:07:59.794Z,101960.00
2023-02-16T17:10:27.799Z,101977.44
2023-02-16T17:12:58.936Z,101974.31
2023-02-16T17:15:34.885Z,101973.25
2023-02-16T17:18:05.223Z,101956.38
2023-02-16T17:20:33.302Z,101947.41
2023-02-16T17:23:04.625Z,101955.34
2023-02-16T17:25:35.976Z,101952.19
2023-02-16T17:28:05.030Z,101953.00
2023-02-16T17:30:33.236Z,101959.88
2023-02-16T17:33:00.842Z,101951.50
2023-02-16T17:35:31.527Z,101944.81
2023-02-16T17:37:59.379Z,101947.22
2023-02-16T17:40:27.378Z,101937.47
2023-02-16T17:42:55.312Z,101947.50
2023-02-16T17:45:23.217Z,101943.28
2023-02-16T17:47:52.981Z,101947.81
2023-02-16T17:50:21.389Z,101948.31
2023-02-16T17:52:57.001Z,101949.13
2023-02-16T17:55:25.004Z,101948.31
2023-02-16T17:57:52.943Z,101959.69
2023-02-16T18:00:22.693Z,101964.72
2023-02-16T18:02:50.518Z,101958.63
2023-02-16T18:05:18.471Z,101958.06
2023-02-16T18:07:46.301Z,101954.41
2023-02-16T18:10:31.715Z,101958.63
2023-02-16T18:12:59.619Z,101951.75
2023-02-16T18:15:27.452Z,101954.69
2023-02-16T18:17:55.589Z,101955.50
2023-02-16T18:20:23.677Z,101959.00
2023-02-16T18:22:51.555Z,101953.91
2023-02-16T18:25:21.062Z,101957.84
2023-02-16T18:27:49.007Z,101960.50
2023-02-16T18:30:17.978Z,101950.69
2023-02-16T18:32:45.976Z,101954.94
2023-02-16T18:35:14.904Z,101946.28
2023-02-16T18:37:42.873Z,101951.81
2023-02-16T18:40:13.755Z,101948.91
2023-02-16T18:42:42.962Z,101949.72
2023-02-16T18:45:11.101Z,101946.53
2023-02-16T18:47:39.092Z,101943.44
2023-02-16T18:50:08.009Z,101947.31
2023-02-16T18:52:35.807Z,101946.81
2023-02-16T18:55:03.549Z,101948.66
2023-02-16T18:57:31.385Z,101945.00
2023-02-16T19:00:00.568Z,101951.56
2023-02-16T19:02:28.355Z,101950.28
2023-02-16T19:04:56.198Z,101952.91
2023-02-16T19:07:24.052Z,101952.09
2023-02-16T19:09:51.863Z,101950.81
2023-02-16T19:12:19.654Z,101960.34
2023-02-16T19:14:47.497Z,101958.75
2023-02-16T19:17:16.725Z,101962.19
2023-02-16T19:19:44.840Z,101961.38
2023-02-16T19:22:12.479Z,101949.09
2023-02-16T19:24:40.296Z,101950.56
2023-02-16T19:27:08.063Z,101954.00
2023-02-16T19:29:35.891Z,101941.84
2023-02-16T19:32:04.044Z,101950.31
2023-02-16T19:34:33.225Z,101938.75
2023-02-16T19:37:01.121Z,101954.00
2023-02-16T19:39:28.962Z,101944.25
2023-02-16T19:41:56.762Z,101940.31
2023-02-16T19:44:24.562Z,101937.13
2023-02-16T19:46:52.351Z,101941.34
2023-02-16T19:49:20.240Z,101944.53
2023-02-16T19:51:49.404Z,101942.94
2023-02-16T19:54:17.261Z,101936.84
2023-02-16T19:56:45.073Z,101945.03
2023-02-16T19:59:12.957Z,101938.69
2023-02-16T20:01:40.796Z,101948.22
2023-02-16T20:04:08.780Z,101941.09
2023-02-16T20:06:39.206Z,101940.84
2023-02-16T20:09:11.047Z,101936.38
2023-02-16T20:11:39.507Z,101936.91
2023-02-16T20:14:07.269Z,101941.94
2023-02-16T20:16:35.312Z,101928.72
2023-02-16T20:19:03.482Z,101936.16
2023-02-16T20:21:31.435Z,101926.72
2023-02-16T20:24:01.919Z,101927.19
2023-02-16T20:26:34.525Z,101927.97
2023-02-16T20:29:03.022Z,101930.13
2023-02-16T20:31:33.819Z,101927.47
2023-02-16T20:34:02.640Z,101935.16
2023-02-16T20:36:31.595Z,101926.72
2023-02-16T20:38:59.518Z,101922.25
2023-02-16T20:41:27.440Z,101925.69
2023-02-16T20:43:56.565Z,101932.06
2023-02-16T20:46:24.898Z,101925.47
2023-02-16T20:48:53.941Z,101928.13
2023-02-16T20:51:22.536Z,101929.47
2023-02-16T20:53:50.689Z,101919.69
2023-02-16T20:56:20.670Z,101917.38
2023-02-16T20:58:50.789Z,101916.78
2023-02-16T21:01:22.666Z,101913.13
2023-02-16T21:03:51.960Z,101916.53
2023-02-16T21:06:20.078Z,101917.09
2023-02-16T21:08:47.956Z,101912.41
2023-02-16T21:11:17.477Z,101909.19
2023-02-16T21:13:45.734Z,101908.09
2023-02-16T21:16:14.993Z,101902.03
2023-02-16T21:18:44.493Z,101903.63
2023-02-16T21:21:15.941Z,101904.66
2023-02-16T21:23:44.193Z,101901.78
2023-02-16T21:26:12.284Z,101911.06
2023-02-16T21:28:40.289Z,101904.16
2023-02-16T21:31:11.234Z,101906.00
2023-02-16T21:33:39.608Z,101908.66
2023-02-16T21:36:10.937Z,101903.13
2023-02-16T21:38:40.203Z,101899.91
2023-02-16T21:41:27.440Z,101912.09
2023-02-16T21:43:57.828Z,101896.22
2023-02-16T21:46:26.353Z,101902.31
2023-02-16T21:48:55.011Z,101897.84
2023-02-16T21:51:26.423Z,101879.56
2023-02-16T21:53:54.362Z,101880.38
2023-02-16T21:56:30.464Z,101884.63
2023-02-16T21:58:58.635Z,101883.00
2023-02-16T22:01:27.376Z,101880.41
2023-02-16T22:03:58.573Z,101878.75
2023-02-16T22:06:29.584Z,101880.38
2023-02-16T22:08:57.355Z,101873.47
2023-02-16T22:11:25.351Z,101883.28
2023-02-16T22:13:57.057Z,101885.66
2023-02-16T22:16:26.402Z,101885.91
2023-02-16T22:18:58.352Z,101889.09
2023-02-16T22:21:28.402Z,101889.34
2023-02-16T22:23:57.616Z,101896.22
2023-02-16T22:26:26.604Z,101893.59
2023-02-16T22:28:54.763Z,101897.03
2023-02-16T22:31:23.583Z,101898.91
2023-02-16T22:33:56.800Z,101891.44
2023-02-16T22:36:25.231Z,101891.44
2023-02-16T22:38:54.895Z,101896.72
2023-02-16T22:41:23.497Z,101892.50
2023-02-16T22:43:54.003Z,101886.16
2023-02-16T22:46:22.224Z,101888.25
2023-02-16T22:48:50.075Z,101895.16
2023-02-16T22:51:18.634Z,101895.16
2023-02-16T22:53:46.828Z,101903.31
2023-02-16T22:56:18.421Z,101899.63
2023-02-16T22:58:46.704Z,101900.44
2023-02-16T23:01:15.875Z,101898.84
2023-02-16T23:03:44.070Z,101888.81
2023-02-16T23:06:14.711Z,101893.53
2023-02-16T23:08:43.092Z,101889.06
2023-02-16T23:11:11.413Z,101888.81
2023-02-16T23:13:40.557Z,101891.44
2023-02-16T23:16:11.746Z,101891.44
2023-02-16T23:18:39.692Z,101895.16
2023-02-16T23:21:08.901Z,101887.22
2023-02-16T23:23:36.984Z,101884.56
2023-02-16T23:26:07.001Z,101893.06
2023-02-16T23:28:35.314Z,101886.16
2023-02-16T23:31:04.424Z,101890.44
2023-02-16T23:33:32.494Z,101889.88
2023-02-16T23:36:00.663Z,101887.22
2023-02-16T23:38:28.369Z,101883.56
2023-02-16T23:40:57.553Z,101890.66
2023-02-16T23:43:26.472Z,101886.16
2023-02-16T23:45:54.688Z,101884.31
2023-02-16T23:48:24.430Z,101884.06
2023-02-16T23:50:53.786Z,101881.41
2023-02-16T23:53:22.730Z,101884.06
2023-02-16T23:55:58.670Z,101877.72
2023-02-16T23:58:28.081Z,101879.56
